Time;durP1;ratioP1;P1;durP2;ratioP2;P2;SDS_P1;SDS_P2;PMS_P1;PMS_P2;Temp;Humidity;BMP_temperature;BMP_pressure;BME280_temperature;BME280_humidity;BME280_pressure;Samples;Min_cycle;Max_cycle;Signal;HPM_P1;HPM_P2
2024/01/10 00:01:02;;;;;;;2.00;1.80;;;-3.40;99.50;;;;;;4984410;28;20535;-68
2024/01/10 00:03:29;;;;;;;2.40;1.50;;;-3.40;99.80;;;;;;4978729;28;20491;-68
2024/01/10 00:05:56;;;;;;;4.00;1.77;;;-3.60;99.90;;;;;;4973274;28;20458;-68
2024/01/10 00:08:24;;;;;;;1.23;1.13;;;-3.60;99.90;;;;;;4983395;28;20458;-68
2024/01/10 00:10:51;;;;;;;1.83;1.40;;;-3.70;99.90;;;;;;4985598;28;20450;-68
2024/01/10 00:13:18;;;;;;;2.40;2.20;;;-3.70;99.90;;;;;;4980529;28;20451;-68
2024/01/10 00:15:45;;;;;;;1.10;1.00;;;-3.70;99.90;;;;;;4982424;28;22277;-68
2024/01/10 00:18:11;;;;;;;4.43;3.07;;;-3.70;99.90;;;;;;4980024;28;20477;-68
2024/01/10 00:20:41;;;;;;;2.13;2.03;;;-3.70;99.90;;;;;;4976783;28;20795;-68
2024/01/10 00:23:08;;;;;;;1.93;1.83;;;-3.80;99.90;;;;;;4977439;28;20485;-68
2024/01/10 00:25:36;;;;;;;1.23;1.13;;;-3.80;99.90;;;;;;4985548;28;20486;-68
2024/01/10 00:28:03;;;;;;;3.10;2.90;;;-3.80;99.90;;;;;;4985975;28;20469;-68
2024/01/10 00:30:29;;;;;;;4.40;1.50;;;-3.90;99.90;;;;;;4983092;28;20467;-68
2024/01/10 00:32:56;;;;;;;1.53;1.40;;;-3.90;99.90;;;;;;4981932;28;20471;-68
2024/01/10 00:35:23;;;;;;;1.20;0.90;;;-4.00;99.90;;;;;;4985464;28;20480;-68
2024/01/10 00:37:50;;;;;;;4.63;1.80;;;-4.00;99.90;;;;;;4980967;28;20469;-68
2024/01/10 00:40:17;;;;;;;1.37;1.07;;;-4.10;99.90;;;;;;4977577;28;20478;-68
2024/01/10 00:42:45;;;;;;;4.40;3.17;;;-4.00;99.90;;;;;;4978314;28;20876;-68
2024/01/10 00:45:11;;;;;;;1.00;0.90;;;-4.10;99.90;;;;;;4978677;28;20466;-68
2024/01/10 00:47:38;;;;;;;1.47;1.37;;;-4.00;99.90;;;;;;4981730;28;20462;-68
2024/01/10 00:50:06;;;;;;;1.30;1.20;;;-4.00;99.90;;;;;;4980000;28;20462;-68
2024/01/10 00:52:33;;;;;;;1.97;1.07;;;-4.10;99.90;;;;;;4986935;28;20454;-68
2024/01/10 00:54:59;;;;;;;1.67;1.53;;;-4.00;99.90;;;;;;4982757;28;20456;-67
2024/01/10 00:57:26;;;;;;;2.00;1.90;;;-4.10;99.90;;;;;;4983558;28;20474;-68
2024/01/10 00:59:54;;;;;;;0.90;0.70;;;-4.10;99.90;;;;;;4982384;28;20817;-67
2024/01/10 01:02:21;;;;;;;3.87;3.30;;;-4.20;99.90;;;;;;4983616;28;20486;-68
2024/01/10 01:04:47;;;;;;;1.00;0.90;;;-4.20;99.90;;;;;;4982300;28;20489;-68
2024/01/10 01:07:14;;;;;;;4.43;3.10;;;-4.20;99.90;;;;;;4984787;28;20768;-68
2024/01/10 01:09:41;;;;;;;1.40;1.30;;;-4.10;99.90;;;;;;4987617;28;20450;-68
2024/01/10 01:12:08;;;;;;;1.57;1.47;;;-4.10;99.90;;;;;;4986316;28;20462;-68
2024/01/10 01:14:34;;;;;;;1.93;1.73;;;-4.10;99.90;;;;;;4980244;28;20477;-67
2024/01/10 01:17:03;;;;;;;2.30;1.50;;;-4.10;99.90;;;;;;4981704;28;20462;-67
2024/01/10 01:19:29;;;;;;;1.03;0.93;;;-4.20;99.90;;;;;;4981874;28;20459;-67
2024/01/10 01:21:56;;;;;;;2.20;2.10;;;-4.30;99.90;;;;;;4981429;28;21425;-68
2024/01/10 01:24:23;;;;;;;2.90;2.40;;;-4.20;99.90;;;;;;4977977;28;20497;-67
2024/01/10 01:26:49;;;;;;;3.00;2.80;;;-4.10;99.90;;;;;;4977171;28;20466;-67
2024/01/10 01:29:17;;;;;;;2.13;2.00;;;-4.20;99.90;;;;;;4983067;28;20450;-67
2024/01/10 01:31:44;;;;;;;1.30;1.20;;;-4.30;99.90;;;;;;4985515;28;20469;-67
2024/01/10 01:34:12;;;;;;;7.43;1.80;;;-4.40;99.90;;;;;;4981060;28;20491;-68
2024/01/10 01:36:39;;;;;;;31.57;2.43;;;-4.50;99.90;;;;;;4974088;28;20469;-68
2024/01/10 01:39:06;;;;;;;5.80;4.43;;;-4.50;99.90;;;;;;4979823;28;20539;-68
2024/01/10 01:41:33;;;;;;;6.57;3.03;;;-4.50;99.90;;;;;;4983701;28;20883;-68
2024/01/10 01:43:59;;;;;;;5.90;4.40;;;-4.40;99.90;;;;;;4983687;28;20464;-68
2024/01/10 01:46:26;;;;;;;1.50;1.40;;;-4.40;99.90;;;;;;4978396;28;20988;-68
2024/01/10 01:48:53;;;;;;;2.43;2.33;;;-4.40;99.90;;;;;;4981621;28;20445;-67
2024/01/10 01:51:23;;;;;;;5.23;1.90;;;-4.40;99.90;;;;;;4978649;28;20450;-68
2024/01/10 01:53:54;;;;;;;2.80;1.33;;;-4.50;99.90;;;;;;4982272;28;20511;-67
2024/01/10 01:56:21;;;;;;;4.80;2.73;;;-4.40;99.90;;;;;;4982169;28;20812;-68
2024/01/10 01:58:51;;;;;;;1.20;1.10;;;-4.40;99.90;;;;;;4982971;28;20478;-67
2024/01/10 02:01:21;;;;;;;1.57;1.47;;;-4.50;99.90;;;;;;4975789;28;20468;-68
2024/01/10 02:03:47;;;;;;;1.20;1.10;;;-4.50;99.90;;;;;;4981485;28;20493;-67
2024/01/10 02:06:14;;;;;;;2.00;1.53;;;-4.50;99.90;;;;;;4979265;28;20496;-67
2024/01/10 02:08:42;;;;;;;4.60;2.30;;;-4.50;99.90;;;;;;4981325;28;20466;-68
2024/01/10 02:11:10;;;;;;;1.23;1.13;;;-4.60;99.90;;;;;;4981566;28;20455;-68
2024/01/10 02:13:37;;;;;;;3.83;2.30;;;-4.50;99.90;;;;;;4979884;28;20461;-68
2024/01/10 02:16:05;;;;;;;3.23;2.63;;;-4.50;99.90;;;;;;4984759;28;20462;-68
2024/01/10 02:18:32;;;;;;;3.77;3.53;;;-4.50;99.90;;;;;;4968935;28;20463;-69
2024/01/10 02:20:58;;;;;;;2.03;1.60;;;-4.50;99.90;;;;;;4983391;28;20588;-68
2024/01/10 02:23:25;;;;;;;1.90;1.33;;;-4.50;99.90;;;;;;4977441;28;21203;-69
2024/01/10 02:25:53;;;;;;;3.57;3.27;;;-4.50;99.90;;;;;;4989256;28;20479;-68
2024/01/10 02:28:20;;;;;;;2.07;1.17;;;-4.50;99.90;;;;;;4977367;28;20465;-68
2024/01/10 02:30:47;;;;;;;2.70;2.40;;;-4.50;99.90;;;;;;4978921;28;20460;-67
2024/01/10 02:33:14;;;;;;;1.97;1.87;;;-4.50;99.90;;;;;;4976509;28;20478;-67
2024/01/10 02:35:40;;;;;;;5.37;3.20;;;-4.50;99.90;;;;;;4982785;28;20998;-68
2024/01/10 02:38:07;;;;;;;8.30;3.67;;;-4.50;99.90;;;;;;4978692;28;20454;-68
2024/01/10 02:40:34;;;;;;;2.47;2.30;;;-4.50;99.90;;;;;;4979043;28;20876;-68
2024/01/10 02:43:02;;;;;;;2.77;2.57;;;-4.50;99.90;;;;;;4981711;28;20482;-68
2024/01/10 02:45:29;;;;;;;1.10;1.00;;;-4.50;99.90;;;;;;4986055;28;20506;-68
2024/01/10 02:47:55;;;;;;;3.30;3.00;;;-4.60;99.90;;;;;;4981387;28;20473;-68
2024/01/10 02:50:22;;;;;;;1.60;1.50;;;-4.60;99.90;;;;;;4982126;28;20952;-68
2024/01/10 02:52:49;;;;;;;3.73;3.43;;;-4.60;99.90;;;;;;4975341;28;20451;-68
2024/01/10 02:55:16;;;;;;;4.13;2.17;;;-4.60;99.90;;;;;;4966282;28;20482;-68
2024/01/10 02:57:42;;;;;;;6.27;2.67;;;-4.50;99.90;;;;;;4968852;28;20458;-68
2024/01/10 03:00:12;;;;;;;4.30;2.30;;;-4.60;99.90;;;;;;4963403;28;20433;-68
2024/01/10 03:02:39;;;;;;;3.90;2.00;;;-4.60;99.90;;;;;;4964139;28;20952;-68
2024/01/10 03:05:06;;;;;;;2.47;2.30;;;-4.60;99.90;;;;;;4975469;28;20469;-68
2024/01/10 03:07:33;;;;;;;1.73;1.63;;;-4.60;99.90;;;;;;4970335;28;20571;-68
2024/01/10 03:09:59;;;;;;;4.53;2.83;;;-4.60;99.90;;;;;;4978024;28;21155;-68
2024/01/10 03:12:26;;;;;;;3.87;2.40;;;-4.50;99.90;;;;;;4967918;28;20454;-68
2024/01/10 03:14:53;;;;;;;2.23;2.03;;;-4.50;99.90;;;;;;4969738;28;20465;-68
2024/01/10 03:17:22;;;;;;;1.17;1.07;;;-4.70;99.90;;;;;;4970587;28;20930;-68
2024/01/10 03:19:48;;;;;;;2.00;1.80;;;-4.80;99.90;;;;;;4975807;28;20470;-68
2024/01/10 03:22:15;;;;;;;2.17;2.07;;;-4.80;99.90;;;;;;4962116;28;20433;-68
2024/01/10 03:24:42;;;;;;;4.60;2.53;;;-4.80;99.90;;;;;;4968037;28;20452;-67
2024/01/10 03:27:09;;;;;;;1.53;1.30;;;-4.80;99.90;;;;;;4967249;28;20471;-67
2024/01/10 03:29:35;;;;;;;2.13;1.97;;;-4.80;99.90;;;;;;4975537;28;20469;-68
2024/01/10 03:32:02;;;;;;;1.83;1.73;;;-4.80;99.90;;;;;;4979073;28;20532;-67
2024/01/10 03:34:30;;;;;;;1.40;1.30;;;-4.80;99.90;;;;;;4978291;28;20513;-68
2024/01/10 03:36:57;;;;;;;4.40;3.60;;;-4.80;99.90;;;;;;4979774;28;20466;-68
2024/01/10 03:39:23;;;;;;;2.17;2.03;;;-4.90;99.90;;;;;;4983503;28;20481;-68
2024/01/10 03:41:50;;;;;;;3.13;2.00;;;-4.80;99.90;;;;;;4979263;28;20971;-67
2024/01/10 03:44:17;;;;;;;3.90;2.40;;;-4.80;99.90;;;;;;4982405;28;20481;-68
2024/01/10 03:46:44;;;;;;;8.73;2.60;;;-4.70;99.90;;;;;;4984897;28;20454;-67
2024/01/10 03:49:10;;;;;;;1.40;1.30;;;-4.70;99.90;;;;;;4984773;28;20457;-68
2024/01/10 03:51:40;;;;;;;3.17;2.37;;;-4.70;99.90;;;;;;4986557;28;20454;-67
2024/01/10 03:54:07;;;;;;;6.27;2.20;;;-4.70;99.90;;;;;;4987932;28;20489;-67
2024/01/10 03:56:33;;;;;;;1.30;1.20;;;-4.80;99.90;;;;;;4986287;28;20494;-67
2024/01/10 03:59:01;;;;;;;2.63;2.43;;;-4.70;99.90;;;;;;4984070;28;20454;-67
2024/01/10 04:01:27;;;;;;;1.40;1.30;;;-4.80;99.90;;;;;;4986280;28;20548;-66
2024/01/10 04:03:54;;;;;;;5.80;3.63;;;-4.80;99.90;;;;;;4983430;28;20495;-66
2024/01/10 04:06:21;;;;;;;3.43;3.10;;;-4.90;99.90;;;;;;4990906;28;20458;-67
2024/01/10 04:08:49;;;;;;;1.73;1.63;;;-4.90;99.90;;;;;;4983760;28;20923;-67
2024/01/10 04:11:15;;;;;;;1.10;1.00;;;-4.80;99.90;;;;;;4981640;28;20458;-67
2024/01/10 04:13:42;;;;;;;4.00;1.60;;;-4.80;99.90;;;;;;4984472;28;20525;-66
2024/01/10 04:16:09;;;;;;;1.30;1.20;;;-4.80;99.90;;;;;;4986309;28;20466;-66
2024/01/10 04:18:36;;;;;;;1.97;1.10;;;-4.80;99.90;;;;;;4985296;28;20858;-66
2024/01/10 04:21:02;;;;;;;2.73;2.30;;;-4.80;99.90;;;;;;4981651;28;20461;-66
2024/01/10 04:23:30;;;;;;;1.13;1.03;;;-4.80;99.90;;;;;;4983665;28;20493;-66
2024/01/10 04:25:58;;;;;;;3.53;1.60;;;-4.80;99.90;;;;;;4981199;28;20820;-67
2024/01/10 04:28:25;;;;;;;9.40;3.60;;;-4.70;99.90;;;;;;4983365;28;20469;-66
2024/01/10 04:30:51;;;;;;;7.43;3.57;;;-4.70;99.90;;;;;;4985607;28;20838;-66
2024/01/10 04:33:21;;;;;;;2.00;1.90;;;-4.70;99.90;;;;;;4983124;28;20468;-67
2024/01/10 04:35:48;;;;;;;1.93;1.80;;;-4.70;99.90;;;;;;4981944;28;20481;-66
2024/01/10 04:38:15;;;;;;;2.70;2.50;;;-4.80;99.90;;;;;;4984560;28;20847;-67
2024/01/10 04:40:42;;;;;;;14.27;3.70;;;-4.70;99.90;;;;;;4983497;28;20461;-68
2024/01/10 04:43:10;;;;;;;1.50;1.40;;;-4.70;99.90;;;;;;4982745;28;20456;-67
2024/01/10 04:45:36;;;;;;;2.73;2.60;;;-4.70;99.90;;;;;;4983485;28;20492;-68
2024/01/10 04:48:03;;;;;;;14.13;3.70;;;-4.70;99.90;;;;;;4986352;28;20478;-68
2024/01/10 04:50:30;;;;;;;5.70;2.23;;;-4.70;99.90;;;;;;4986946;28;20447;-68
2024/01/10 04:52:57;;;;;;;3.27;2.10;;;-4.80;99.90;;;;;;4983575;28;20464;-67
2024/01/10 04:55:23;;;;;;;9.50;3.17;;;-4.80;99.90;;;;;;4987499;28;20489;-67
2024/01/10 04:57:50;;;;;;;1.67;1.57;;;-4.90;99.90;;;;;;4984089;28;20439;-67
2024/01/10 05:00:18;;;;;;;4.77;4.30;;;-5.00;99.90;;;;;;4985293;28;20446;-68
2024/01/10 05:02:44;;;;;;;3.43;2.93;;;-5.00;99.90;;;;;;4984679;28;20801;-68
2024/01/10 05:05:11;;;;;;;3.57;2.67;;;-4.90;99.90;;;;;;4984350;28;20482;-68
2024/01/10 05:07:38;;;;;;;4.27;3.20;;;-5.00;99.90;;;;;;4985125;28;20472;-68
2024/01/10 05:10:06;;;;;;;2.23;1.40;;;-5.00;99.90;;;;;;4983487;28;20822;-68
2024/01/10 05:12:32;;;;;;;1.87;1.77;;;-5.00;99.90;;;;;;4979510;28;20506;-67
2024/01/10 05:14:59;;;;;;;3.30;2.10;;;-5.00;99.90;;;;;;4983750;28;20448;-68
2024/01/10 05:17:27;;;;;;;3.07;1.67;;;-5.00;99.90;;;;;;4985441;28;20454;-68
2024/01/10 05:19:55;;;;;;;2.60;2.30;;;-5.00;99.90;;;;;;4985147;28;20542;-67
2024/01/10 05:22:22;;;;;;;6.40;2.90;;;-5.00;99.90;;;;;;4983266;28;20445;-67
2024/01/10 05:24:49;;;;;;;5.03;2.70;;;-4.90;99.90;;;;;;4985065;28;20552;-67
2024/01/10 05:27:16;;;;;;;2.73;2.40;;;-4.80;99.90;;;;;;4987275;28;20461;-67
2024/01/10 05:29:42;;;;;;;10.63;4.10;;;-4.80;99.90;;;;;;4982930;28;20437;-68
2024/01/10 05:32:09;;;;;;;18.00;3.03;;;-4.90;99.90;;;;;;4986089;28;20436;-68
2024/01/10 05:34:37;;;;;;;1.33;1.23;;;-4.80;99.90;;;;;;4981889;28;20440;-68
2024/01/10 05:37:04;;;;;;;1.40;1.30;;;-4.90;99.90;;;;;;4986351;28;20833;-68
2024/01/10 05:39:31;;;;;;;5.63;5.17;;;-4.90;99.90;;;;;;4979487;28;20469;-68
2024/01/10 05:41:58;;;;;;;2.10;2.00;;;-5.00;99.90;;;;;;4981039;28;20485;-68
2024/01/10 05:44:24;;;;;;;3.23;3.03;;;-5.00;99.90;;;;;;4984868;28;20468;-68
2024/01/10 05:46:51;;;;;;;1.90;1.80;;;-5.00;99.90;;;;;;4984965;28;20780;-68
2024/01/10 05:49:18;;;;;;;4.30;3.97;;;-5.00;99.90;;;;;;4983208;28;20461;-68
2024/01/10 05:51:46;;;;;;;3.70;3.33;;;-4.80;99.90;;;;;;4983001;28;20466;-68
2024/01/10 05:54:13;;;;;;;5.37;2.20;;;-4.80;99.90;;;;;;4982830;28;20541;-68
2024/01/10 05:56:40;;;;;;;3.27;2.70;;;-4.80;99.90;;;;;;4985757;28;20933;-68
2024/01/10 05:59:11;;;;;;;3.60;1.70;;;-4.80;99.90;;;;;;4986520;28;20422;-68
2024/01/10 06:01:38;;;;;;;3.10;2.60;;;-4.80;99.90;;;;;;4985261;28;20489;-67
2024/01/10 06:04:05;;;;;;;4.20;3.80;;;-4.80;99.90;;;;;;4981891;28;20537;-67
2024/01/10 06:06:33;;;;;;;2.03;1.87;;;-4.80;99.90;;;;;;4986236;28;20458;-67
2024/01/10 06:09:01;;;;;;;2.57;2.40;;;-4.90;99.90;;;;;;4989987;28;20441;-67
2024/01/10 06:11:29;;;;;;;1.60;1.50;;;-4.80;99.90;;;;;;4987197;28;20454;-67
2024/01/10 06:13:57;;;;;;;4.43;4.13;;;-4.80;99.90;;;;;;4984812;28;20478;-68
2024/01/10 06:16:24;;;;;;;1.87;1.77;;;-4.80;99.90;;;;;;4983890;28;20944;-67
2024/01/10 06:18:52;;;;;;;2.90;1.80;;;-4.90;99.90;;;;;;4987162;28;20470;-68
2024/01/10 06:21:19;;;;;;;6.23;3.20;;;-4.70;99.90;;;;;;4985918;28;20461;-67
2024/01/10 06:23:46;;;;;;;7.00;3.20;;;-4.70;99.90;;;;;;4984440;28;20495;-68
2024/01/10 06:26:14;;;;;;;2.10;1.80;;;-4.70;99.90;;;;;;4987651;28;20466;-68
2024/01/10 06:28:41;;;;;;;4.40;2.23;;;-4.70;99.90;;;;;;4986572;28;20469;-68
2024/01/10 06:31:08;;;;;;;1.50;1.40;;;-4.90;99.90;;;;;;4983778;28;20797;-67
2024/01/10 06:33:35;;;;;;;5.23;3.83;;;-4.90;99.90;;;;;;4982708;28;20737;-68
2024/01/10 06:36:02;;;;;;;6.80;6.13;;;-4.80;99.90;;;;;;4978733;28;20834;-68
2024/01/10 06:38:28;;;;;;;1.47;1.30;;;-4.80;99.90;;;;;;4984469;28;20549;-67
2024/01/10 06:40:55;;;;;;;5.43;4.77;;;-4.90;99.90;;;;;;4987221;28;20451;-68
2024/01/10 06:43:23;;;;;;;5.73;2.37;;;-4.90;99.90;;;;;;4989416;28;20972;-68
2024/01/10 06:45:50;;;;;;;2.27;2.00;;;-4.90;99.90;;;;;;4980966;28;20476;-68
2024/01/10 06:48:18;;;;;;;2.20;2.10;;;-4.80;99.90;;;;;;4980633;28;20477;-68
2024/01/10 06:50:45;;;;;;;2.90;2.70;;;-4.90;99.90;;;;;;4987048;28;20502;-68
2024/01/10 06:53:12;;;;;;;1.90;1.80;;;-4.90;99.90;;;;;;4985019;28;20506;-68
2024/01/10 06:55:39;;;;;;;2.23;2.07;;;-4.80;99.90;;;;;;4984888;28;20510;-67
2024/01/10 06:58:06;;;;;;;2.27;2.10;;;-4.90;99.90;;;;;;4987069;28;20469;-67
2024/01/10 07:00:34;;;;;;;11.70;6.90;;;-4.90;99.90;;;;;;4978767;28;20451;-67
2024/01/10 07:03:02;;;;;;;20.83;3.83;;;-4.80;99.90;;;;;;4986451;28;20461;-67
2024/01/10 07:05:31;;;;;;;2.23;2.03;;;-4.80;99.90;;;;;;4985899;28;20510;-68
2024/01/10 07:07:58;;;;;;;4.10;3.73;;;-4.90;99.90;;;;;;4982446;28;20470;-68
2024/01/10 07:10:27;;;;;;;19.97;3.37;;;-4.90;99.90;;;;;;4984771;28;20462;-68
2024/01/10 07:12:54;;;;;;;3.27;2.23;;;-4.90;99.90;;;;;;4980933;28;20462;-68
2024/01/10 07:15:20;;;;;;;5.13;4.87;;;-4.90;99.90;;;;;;4986052;28;20470;-68
2024/01/10 07:17:49;;;;;;;2.70;2.50;;;-4.90;99.90;;;;;;4986952;28;20584;-67
2024/01/10 07:20:16;;;;;;;10.30;6.50;;;-4.90;99.90;;;;;;4986268;28;20477;-67
2024/01/10 07:22:43;;;;;;;2.83;2.63;;;-4.90;99.90;;;;;;4983798;28;20455;-69
2024/01/10 07:25:13;;;;;;;2.20;2.00;;;-4.90;99.90;;;;;;4984662;28;20468;-67
2024/01/10 07:27:40;;;;;;;2.00;1.53;;;-5.00;99.90;;;;;;4986846;28;20446;-68
2024/01/10 07:30:13;;;;;;;2.80;2.60;;;-4.90;99.90;;;;;;4983117;28;20445;-67
2024/01/10 07:32:40;;;;;;;2.83;2.60;;;-4.90;99.90;;;;;;4979800;28;20471;-67
2024/01/10 07:35:09;;;;;;;9.60;4.83;;;-4.90;99.90;;;;;;4985306;28;21004;-67
2024/01/10 07:37:36;;;;;;;4.17;2.70;;;-4.90;99.90;;;;;;4979888;28;20537;-68
2024/01/10 07:40:05;;;;;;;2.60;2.33;;;-4.90;99.90;;;;;;4985058;28;20457;-68
2024/01/10 07:42:32;;;;;;;3.03;2.87;;;-4.80;99.90;;;;;;4985681;28;20469;-68
2024/01/10 07:44:59;;;;;;;3.30;3.00;;;-4.90;99.90;;;;;;4976676;28;20489;-68
2024/01/10 07:47:26;;;;;;;3.83;3.53;;;-4.90;99.90;;;;;;4982466;28;20458;-67
2024/01/10 07:49:52;;;;;;;1.73;1.60;;;-4.80;99.90;;;;;;4973038;28;20461;-68
2024/01/10 07:52:21;;;;;;;9.87;5.67;;;-4.80;99.90;;;;;;4986699;28;20912;-68
2024/01/10 07:54:47;;;;;;;2.80;2.40;;;-4.70;99.90;;;;;;4986020;28;21026;-68
2024/01/10 07:57:14;;;;;;;3.80;3.50;;;-4.70;99.90;;;;;;4985302;28;20497;-68
2024/01/10 07:59:41;;;;;;;5.53;3.47;;;-4.60;99.90;;;;;;4979171;28;20457;-68
2024/01/10 08:02:10;;;;;;;2.30;2.10;;;-4.50;99.90;;;;;;4985921;28;20461;-68
2024/01/10 08:04:37;;;;;;;9.13;4.67;;;-4.40;99.90;;;;;;4979590;28;20965;-68
2024/01/10 08:07:04;;;;;;;6.70;3.20;;;-4.20;99.90;;;;;;4985595;28;21001;-68
2024/01/10 08:09:32;;;;;;;6.60;3.40;;;-4.20;99.90;;;;;;4980223;28;20447;-68
2024/01/10 08:11:59;;;;;;;3.33;3.13;;;-4.20;99.90;;;;;;4982508;28;20479;-68
2024/01/10 08:14:26;;;;;;;3.83;2.37;;;-4.20;99.90;;;;;;4983512;28;20461;-68
2024/01/10 08:16:54;;;;;;;2.83;1.60;;;-4.10;99.90;;;;;;4982798;28;20472;-68
2024/01/10 08:19:21;;;;;;;7.20;5.13;;;-4.00;99.90;;;;;;4981289;28;20475;-68
2024/01/10 08:21:48;;;;;;;2.93;2.77;;;-4.00;99.90;;;;;;4985690;28;20551;-69
2024/01/10 08:24:14;;;;;;;2.70;2.27;;;-4.00;99.90;;;;;;4987163;28;20464;-67
2024/01/10 08:26:42;;;;;;;2.07;1.97;;;-4.00;99.90;;;;;;4986663;28;20561;-67
2024/01/10 08:29:09;;;;;;;8.20;5.17;;;-3.80;99.90;;;;;;4983522;28;20529;-67
2024/01/10 08:31:36;;;;;;;2.83;2.60;;;-3.80;99.90;;;;;;4984990;28;20905;-68
2024/01/10 08:34:03;;;;;;;5.17;4.67;;;-3.70;99.90;;;;;;4984303;28;20485;-68
2024/01/10 08:36:29;;;;;;;4.30;2.77;;;-3.70;99.90;;;;;;4984290;28;20481;-68
2024/01/10 08:38:56;;;;;;;3.40;3.13;;;-3.50;99.90;;;;;;4989323;28;20477;-68
2024/01/10 08:41:23;;;;;;;4.70;2.73;;;-3.40;99.90;;;;;;4988991;28;20508;-67
2024/01/10 08:43:51;;;;;;;1.90;1.80;;;-3.20;99.90;;;;;;4989289;28;20556;-68
2024/01/10 08:46:18;;;;;;;5.73;4.57;;;-3.20;99.90;;;;;;4991180;28;20921;-68
2024/01/10 08:48:47;;;;;;;12.73;6.70;;;-2.90;99.90;;;;;;4979120;28;20467;-67
2024/01/10 08:51:16;;;;;;;5.13;3.17;;;-2.80;99.90;;;;;;4980874;28;20486;-68
2024/01/10 08:53:43;;;;;;;6.03;3.73;;;-2.40;99.90;;;;;;4986634;28;20462;-69
2024/01/10 08:56:10;;;;;;;4.20;2.10;;;-1.90;99.90;;;;;;4984937;28;20545;-68
2024/01/10 08:58:37;;;;;;;4.70;4.30;;;-1.40;99.90;;;;;;4988175;28;20906;-68
2024/01/10 09:01:05;;;;;;;7.40;5.67;;;-0.70;99.90;;;;;;4981408;28;20517;-68
2024/01/10 09:03:32;;;;;;;5.70;3.37;;;0.00;99.90;;;;;;4988024;28;20472;-67
2024/01/10 09:05:58;;;;;;;6.70;4.47;;;0.70;99.90;;;;;;4982178;28;20482;-67
2024/01/10 09:08:25;;;;;;;7.43;4.70;;;1.50;99.90;;;;;;4988324;28;20440;-68
2024/01/10 09:10:52;;;;;;;3.30;3.00;;;2.10;99.80;;;;;;4984501;28;20440;-68
2024/01/10 09:13:18;;;;;;;7.83;5.93;;;1.40;98.20;;;;;;4978635;28;20489;-67
2024/01/10 09:15:45;;;;;;;5.77;3.67;;;1.00;98.80;;;;;;4988450;28;20774;-68
2024/01/10 09:18:13;;;;;;;10.03;4.13;;;0.60;98.60;;;;;;4978211;28;20445;-68
2024/01/10 09:20:40;;;;;;;8.67;6.77;;;0.40;99.40;;;;;;4986995;28;20825;-67
2024/01/10 09:23:06;;;;;;;4.40;3.50;;;0.70;99.50;;;;;;4988501;28;20459;-68
2024/01/10 09:25:33;;;;;;;10.57;7.20;;;1.60;99.80;;;;;;4985773;28;20452;-68
2024/01/10 09:28:00;;;;;;;4.13;3.07;;;2.70;98.00;;;;;;4983379;28;20440;-67
2024/01/10 09:30:27;;;;;;;10.90;6.50;;;3.30;95.90;;;;;;4983777;28;20450;-67
2024/01/10 09:32:53;;;;;;;9.43;4.30;;;3.20;94.50;;;;;;4984795;28;20437;-67
2024/01/10 09:35:21;;;;;;;8.03;4.80;;;2.80;93.30;;;;;;4988604;28;20478;-67
2024/01/10 09:37:49;;;;;;;8.00;4.93;;;2.20;92.60;;;;;;4987712;28;20446;-67
2024/01/10 09:40:17;;;;;;;3.67;2.67;;;1.10;92.00;;;;;;4981190;28;20473;-67
2024/01/10 09:42:45;;;;;;;6.63;6.03;;;0.60;92.60;;;;;;4984518;28;20461;-67
2024/01/10 09:45:12;;;;;;;12.03;5.23;;;0.20;92.60;;;;;;4981547;28;20572;-67
2024/01/10 09:47:42;;;;;;;2.50;2.00;;;-0.40;92.60;;;;;;4985242;28;20433;-68
2024/01/10 09:50:10;;;;;;;7.87;4.93;;;-0.50;93.60;;;;;;4984332;28;20553;-68
2024/01/10 09:52:44;;;;;;;4.37;3.97;;;-0.50;93.90;;;;;;4987839;28;20530;-68
2024/01/10 09:55:12;;;;;;;16.23;5.40;;;-0.60;93.30;;;;;;4984660;28;20473;-67
2024/01/10 09:57:40;;;;;;;7.30;3.73;;;-0.60;93.40;;;;;;4979425;28;20519;-67
2024/01/10 10:00:10;;;;;;;3.93;3.57;;;-0.40;93.10;;;;;;4978073;28;20433;-68
2024/01/10 10:02:39;;;;;;;3.00;1.90;;;0.50;93.60;;;;;;4987849;28;20428;-68
2024/01/10 10:05:11;;;;;;;3.20;2.60;;;1.00;92.10;;;;;;4985348;28;20461;-68
2024/01/10 10:07:46;;;;;;;2.20;2.00;;;0.60;91.50;;;;;;4974594;28;20465;-68
2024/01/10 10:10:14;;;;;;;12.33;3.53;;;0.30;91.90;;;;;;4986819;28;20453;-68
2024/01/10 10:12:45;;;;;;;3.23;2.93;;;0.20;91.70;;;;;;4986814;28;20429;-68
2024/01/10 10:15:14;;;;;;;2.13;1.23;;;0.00;91.70;;;;;;4986726;28;20939;-67
2024/01/10 10:17:46;;;;;;;4.80;1.50;;;0.10;92.40;;;;;;4984978;28;20464;-69
2024/01/10 10:20:14;;;;;;;4.70;3.00;;;0.70;92.40;;;;;;4984172;28;20490;-67
2024/01/10 10:22:51;;;;;;;3.73;3.50;;;1.60;92.10;;;;;;4983014;28;20466;-68
2024/01/10 10:25:19;;;;;;;4.63;4.07;;;2.00;90.70;;;;;;4985662;28;20940;-67
2024/01/10 10:27:45;;;;;;;9.90;5.30;;;1.80;89.70;;;;;;4988317;28;20461;-69
2024/01/10 10:30:13;;;;;;;3.20;1.93;;;1.40;90.60;;;;;;4985107;28;20624;-68
2024/01/10 10:32:40;;;;;;;13.67;4.53;;;1.10;90.10;;;;;;4977655;28;20460;-67
2024/01/10 10:35:08;;;;;;;2.93;2.40;;;0.60;90.30;;;;;;4982993;28;20449;-68
2024/01/10 10:37:35;;;;;;;3.10;2.70;;;0.50;90.50;;;;;;4988570;28;20851;-68
2024/01/10 10:40:02;;;;;;;2.37;2.03;;;0.40;90.70;;;;;;4986613;28;20454;-67
2024/01/10 10:42:32;;;;;;;10.13;3.33;;;0.30;90.70;;;;;;4984510;28;20440;-68
2024/01/10 10:45:04;;;;;;;10.93;5.00;;;0.30;91.00;;;;;;4981141;28;20854;-68
2024/01/10 10:47:35;;;;;;;5.87;3.70;;;0.30;90.80;;;;;;4983375;28;20432;-68
2024/01/10 10:50:05;;;;;;;6.10;5.50;;;0.30;90.80;;;;;;4974341;28;20433;-67
2024/01/10 10:52:33;;;;;;;5.77;4.23;;;0.30;91.00;;;;;;4980931;28;20484;-67
2024/01/10 10:55:00;;;;;;;6.70;3.93;;;0.30;90.20;;;;;;4983081;28;20456;-68
2024/01/10 10:57:28;;;;;;;16.10;4.10;;;0.30;90.60;;;;;;4980583;28;20516;-67
2024/01/10 10:59:58;;;;;;;7.97;4.97;;;0.40;90.50;;;;;;4985859;28;20890;-67
2024/01/10 11:02:25;;;;;;;5.97;3.90;;;0.50;90.80;;;;;;4982711;28;20458;-68
2024/01/10 11:04:53;;;;;;;12.60;3.97;;;0.40;89.70;;;;;;4984542;28;20829;-68
2024/01/10 11:07:20;;;;;;;7.83;7.33;;;0.40;90.00;;;;;;4987046;28;20424;-68
2024/01/10 11:09:48;;;;;;;6.60;3.23;;;0.40;89.80;;;;;;4979483;28;20467;-69
2024/01/10 11:12:28;;;;;;;11.13;3.37;;;0.40;90.00;;;;;;4985897;28;20437;-68
2024/01/10 11:15:11;;;;;;;6.93;3.47;;;0.40;90.00;;;;;;4984168;28;20470;-68
2024/01/10 11:18:08;;;;;;;10.17;3.93;;;0.40;89.60;;;;;;4986614;28;20473;-68
2024/01/10 11:20:51;;;;;;;6.43;5.03;;;0.40;90.10;;;;;;4982849;28;20433;-67
2024/01/10 11:23:39;;;;;;;6.93;4.63;;;0.50;90.10;;;;;;4976089;28;20428;-68
2024/01/10 11:26:06;;;;;;;11.17;4.60;;;0.50;89.70;;;;;;4983919;28;20493;-68
2024/01/10 11:28:33;;;;;;;4.30;2.00;;;0.60;90.20;;;;;;4986519;28;20509;-67
2024/01/10 11:31:01;;;;;;;4.60;2.87;;;0.70;90.10;;;;;;4984679;28;20460;-67
2024/01/10 11:33:32;;;;;;;9.27;6.00;;;0.60;89.10;;;;;;4986768;28;20899;-68
2024/01/10 11:36:10;;;;;;;5.67;4.63;;;0.60;88.20;;;;;;4985482;28;20448;-68
2024/01/10 11:38:42;;;;;;;2.27;2.17;;;0.60;89.80;;;;;;4986711;28;21023;-68
2024/01/10 11:41:11;;;;;;;2.90;2.70;;;0.70;89.40;;;;;;4969329;28;20454;-68
2024/01/10 11:43:39;;;;;;;4.90;1.70;;;0.80;90.10;;;;;;4980441;28;20429;-68
2024/01/10 11:46:08;;;;;;;10.30;6.63;;;1.00;89.70;;;;;;4985343;28;20474;-68
2024/01/10 11:48:35;;;;;;;3.53;2.40;;;1.20;89.90;;;;;;4977438;28;20860;-68
2024/01/10 11:51:04;;;;;;;8.63;4.30;;;1.80;89.10;;;;;;4984882;28;20443;-68
2024/01/10 11:53:45;;;;;;;2.87;2.13;;;2.50;88.20;;;;;;4984226;28;20448;-68
2024/01/10 11:56:15;;;;;;;2.50;2.30;;;3.00;86.40;;;;;;4984475;28;20440;-68
2024/01/10 11:59:03;;;;;;;2.23;1.87;;;3.50;84.50;;;;;;4983145;28;20470;-68
2024/01/10 12:01:31;;;;;;;6.47;3.90;;;3.80;82.10;;;;;;4984997;28;20468;-68
2024/01/10 12:03:59;;;;;;;6.07;4.97;;;4.30;81.90;;;;;;4990621;28;20441;-67
2024/01/10 12:06:27;;;;;;;20.37;7.33;;;4.70;80.70;;;;;;4989180;28;21090;-68
2024/01/10 12:08:53;;;;;;;6.63;4.60;;;5.80;79.50;;;;;;4989944;28;20470;-68
2024/01/10 12:11:20;;;;;;;7.00;4.27;;;6.60;76.90;;;;;;4989551;28;21032;-68
2024/01/10 12:13:48;;;;;;;11.47;5.80;;;7.10;73.50;;;;;;4990236;28;20458;-67
2024/01/10 12:16:14;;;;;;;12.53;3.93;;;6.80;71.60;;;;;;4987601;28;20433;-67
2024/01/10 12:18:43;;;;;;;5.03;4.30;;;6.40;69.70;;;;;;4987743;28;20466;-68
2024/01/10 12:21:10;;;;;;;6.93;5.40;;;6.00;69.00;;;;;;4988759;28;20462;-68
2024/01/10 12:23:38;;;;;;;9.63;4.07;;;6.10;69.60;;;;;;4983928;28;20505;-68
2024/01/10 12:26:07;;;;;;;12.57;6.37;;;6.40;68.00;;;;;;4986025;28;20492;-68
2024/01/10 12:28:36;;;;;;;6.30;5.00;;;6.40;69.20;;;;;;4987179;28;20788;-68
2024/01/10 12:31:04;;;;;;;9.13;5.90;;;6.70;67.00;;;;;;4983184;28;20474;-69
2024/01/10 12:33:32;;;;;;;9.03;6.10;;;6.30;67.20;;;;;;4986108;28;20903;-68
2024/01/10 12:36:09;;;;;;;7.07;4.20;;;6.40;68.00;;;;;;4982479;28;20424;-69
2024/01/10 12:38:36;;;;;;;13.40;6.50;;;7.10;67.70;;;;;;4986230;28;20522;-68
2024/01/10 12:41:04;;;;;;;9.80;5.70;;;7.20;66.00;;;;;;4986587;28;20460;-68
2024/01/10 12:43:31;;;;;;;14.13;6.17;;;7.30;65.50;;;;;;4986300;28;20469;-68
2024/01/10 12:46:05;;;;;;;7.30;6.20;;;7.50;64.40;;;;;;4984158;28;20475;-68
2024/01/10 12:48:33;;;;;;;11.00;6.40;;;7.90;64.00;;;;;;4986297;28;20948;-68
2024/01/10 12:51:01;;;;;;;15.27;5.57;;;7.80;63.30;;;;;;4980979;28;20516;-68